createdAt,value
2022-12-04T00:01:41.393Z,2.20
2022-12-04T00:04:10.846Z,3.33
2022-12-04T00:06:39.154Z,2.88
2022-12-04T00:09:07.789Z,1.90
2022-12-04T00:11:36.870Z,2.20
2022-12-04T00:14:07.403Z,1.90
2022-12-04T00:16:36.086Z,2.03
2022-12-04T00:19:04.395Z,2.42
2022-12-04T00:21:32.139Z,1.83
2022-12-04T00:24:01.531Z,2.10
2022-12-04T00:26:31.388Z,2.08
2022-12-04T00:29:05.376Z,3.63
2022-12-04T00:31:33.782Z,5.40
2022-12-04T00:34:02.156Z,1.90
2022-12-04T00:36:30.887Z,1.50
2022-12-04T00:39:02.673Z,1.38
2022-12-04T00:41:33.708Z,1.58
2022-12-04T00:44:02.688Z,1.95
2022-12-04T00:46:32.387Z,2.10
2022-12-04T00:49:02.900Z,1.90
2022-12-04T00:51:30.895Z,1.52
2022-12-04T00:53:58.175Z,1.60
2022-12-04T00:56:28.748Z,1.70
2022-12-04T00:58:59.085Z,1.60
2022-12-04T01:01:28.532Z,1.75
2022-12-04T01:03:57.186Z,2.15
2022-12-04T01:06:27.389Z,1.42
2022-12-04T01:08:56.776Z,1.40
2022-12-04T01:11:26.106Z,1.70
2022-12-04T01:13:53.469Z,1.42
2022-12-04T01:16:27.391Z,1.38
2022-12-04T01:18:54.964Z,1.40
2022-12-04T01:21:22.345Z,1.35
2022-12-04T01:23:50.758Z,1.75
2022-12-04T01:26:18.389Z,1.98
2022-12-04T01:28:46.483Z,2.00
2022-12-04T01:31:17.587Z,1.73
2022-12-04T01:33:45.503Z,1.58
2022-12-04T01:36:17.008Z,1.55
2022-12-04T01:38:46.551Z,1.60
2022-12-04T01:41:16.790Z,1.67
2022-12-04T01:43:44.228Z,5.07
2022-12-04T01:46:12.202Z,6.30
2022-12-04T01:48:54.531Z,4.22
2022-12-04T01:51:30.085Z,2.47
2022-12-04T01:54:02.772Z,1.75
2022-12-04T01:56:36.921Z,2.03
2022-12-04T01:59:07.024Z,1.48
2022-12-04T02:01:43.773Z,3.38
2022-12-04T02:04:11.147Z,1.88
2022-12-04T02:06:38.534Z,2.00
2022-12-04T02:09:05.987Z,1.48
2022-12-04T02:12:08.679Z,1.50
2022-12-04T02:14:46.885Z,1.70
2022-12-04T02:17:27.956Z,2.30
2022-12-04T02:20:16.909Z,1.42
2022-12-04T02:23:16.078Z,2.03
2022-12-04T02:26:03.104Z,2.03
2022-12-04T02:28:51.746Z,2.50
2022-12-04T02:31:31.304Z,2.85
2022-12-04T02:34:10.004Z,1.75
2022-12-04T02:36:45.337Z,1.90
2022-12-04T02:39:15.957Z,3.40
2022-12-04T02:44:23.654Z,2.28
2022-12-04T02:46:57.725Z,2.28
2022-12-04T02:49:35.240Z,3.38
2022-12-04T02:52:07.888Z,2.22
2022-12-04T02:54:45.412Z,2.40
2022-12-04T02:57:19.033Z,2.20
2022-12-04T02:59:50.754Z,1.92
2022-12-04T03:02:35.389Z,2.33
2022-12-04T03:05:10.244Z,6.13
2022-12-04T03:07:54.144Z,7.38
2022-12-04T03:10:30.595Z,5.80
2022-12-04T03:13:14.176Z,3.97
2022-12-04T03:16:01.263Z,2.45
2022-12-04T03:18:45.201Z,2.08
2022-12-04T03:21:21.847Z,1.83
2022-12-04T03:23:50.501Z,2.20
2022-12-04T03:26:40.455Z,3.05
2022-12-04T03:29:35.695Z,3.43
2022-12-04T03:32:09.005Z,2.60
2022-12-04T03:34:40.225Z,1.80
2022-12-04T03:37:14.352Z,2.67
2022-12-04T03:39:53.611Z,2.55
2022-12-04T03:42:46.764Z,2.50
2022-12-04T03:45:30.061Z,2.25
2022-12-04T03:48:03.177Z,2.28
2022-12-04T03:51:07.856Z,2.67
2022-12-04T03:53:49.991Z,1.48
2022-12-04T03:56:21.790Z,1.45
2022-12-04T03:59:01.325Z,1.15
2022-12-04T04:01:33.558Z,1.30
2022-12-04T04:04:04.209Z,1.50
2022-12-04T04:06:54.154Z,1.63
2022-12-04T04:09:29.332Z,2.35
2022-12-04T04:12:10.742Z,2.42
2022-12-04T04:15:33.947Z,1.63
2022-12-04T04:18:21.632Z,2.45
2022-12-04T04:21:12.946Z,2.50
2022-12-04T04:24:04.029Z,2.17
2022-12-04T04:26:36.220Z,17.58
2022-12-04T04:29:04.474Z,22.23
2022-12-04T04:31:38.657Z,14.73
2022-12-04T04:34:34.514Z,9.30
2022-12-04T04:37:37.378Z,3.28
2022-12-04T04:40:14.970Z,1.95
2022-12-04T04:42:57.872Z,2.30
2022-12-04T04:45:35.761Z,2.75
2022-12-04T04:48:14.616Z,2.72
2022-12-04T04:50:43.067Z,3.38
2022-12-04T04:53:15.654Z,4.30
2022-12-04T04:55:43.896Z,4.13
2022-12-04T04:58:17.752Z,3.13
2022-12-04T05:01:00.570Z,2.28
2022-12-04T05:03:29.299Z,2.25
2022-12-04T05:05:58.098Z,2.10
2022-12-04T05:08:26.595Z,1.70
2022-12-04T05:10:53.985Z,2.53
2022-12-04T05:13:22.026Z,2.28
2022-12-04T05:16:04.633Z,2.70
2022-12-04T05:18:33.986Z,2.42
2022-12-04T05:21:09.919Z,4.10
2022-12-04T05:23:37.250Z,6.25
2022-12-04T05:26:06.229Z,4.45
2022-12-04T05:28:33.579Z,2.40
2022-12-04T05:31:03.576Z,2.20
2022-12-04T05:33:31.574Z,2.37
2022-12-04T05:36:03.077Z,2.05
2022-12-04T05:38:32.185Z,2.30
2022-12-04T05:41:00.867Z,2.47
2022-12-04T05:43:28.710Z,2.80
2022-12-04T05:46:00.706Z,2.30
2022-12-04T05:48:28.504Z,2.58
2022-12-04T05:50:55.955Z,4.75
2022-12-04T05:53:24.811Z,6.03
2022-12-04T05:56:00.911Z,5.47
2022-12-04T05:58:28.931Z,3.67
2022-12-04T06:00:57.154Z,3.15
2022-12-04T06:03:25.022Z,2.92
2022-12-04T06:05:52.610Z,2.67
2022-12-04T06:08:20.086Z,4.65
2022-12-04T06:10:47.470Z,2.38
2022-12-04T06:13:14.800Z,2.45
2022-12-04T06:15:44.609Z,2.75
2022-12-04T06:18:12.258Z,2.90
2022-12-04T06:20:40.453Z,2.70
2022-12-04T06:23:07.793Z,2.55
2022-12-04T06:25:35.069Z,20.52
2022-12-04T06:28:02.257Z,32.38
2022-12-04T06:30:36.773Z,26.92
2022-12-04T06:33:04.132Z,10.70
2022-12-04T06:35:31.426Z,6.93
2022-12-04T06:37:59.426Z,6.03
2022-12-04T06:40:27.101Z,11.63
2022-12-04T06:42:55.230Z,13.23
2022-12-04T06:45:23.879Z,11.27
2022-12-04T06:47:52.218Z,11.43
2022-12-04T06:50:19.587Z,10.63
2022-12-04T06:52:46.942Z,22.23
2022-12-04T06:55:14.441Z,24.85
2022-12-04T06:57:42.568Z,19.70
2022-12-04T07:00:12.006Z,11.43
2022-12-04T07:02:44.222Z,10.98
2022-12-04T07:07:39.317Z,6.15
2022-12-04T07:10:08.279Z,5.65
2022-12-04T07:12:37.156Z,6.82
2022-12-04T07:15:06.899Z,10.82
2022-12-04T07:17:34.131Z,9.55
2022-12-04T07:20:01.432Z,6.75
2022-12-04T07:22:30.133Z,6.50
2022-12-04T07:24:57.927Z,7.78
2022-12-04T07:27:26.937Z,6.00
2022-12-04T07:29:55.471Z,4.97
2022-12-04T07:32:23.055Z,3.70
2022-12-04T07:34:51.626Z,5.80
2022-12-04T07:37:19.097Z,6.80
2022-12-04T07:39:46.434Z,7.43
2022-12-04T07:42:14.153Z,7.43
2022-12-04T07:44:41.643Z,8.73
2022-12-04T07:47:09.553Z,7.82
2022-12-04T07:49:36.994Z,17.17
2022-12-04T07:52:04.570Z,13.77
2022-12-04T07:54:32.582Z,10.32
2022-12-04T07:56:59.853Z,9.45
2022-12-04T07:59:27.327Z,10.10
2022-12-04T08:01:55.380Z,9.85
2022-12-04T08:04:23.521Z,12.48
2022-12-04T08:06:52.394Z,10.40
2022-12-04T08:09:22.513Z,10.70
2022-12-04T08:11:49.940Z,20.67
2022-12-04T08:14:17.261Z,10.43
2022-12-04T08:16:49.636Z,9.38
2022-12-04T08:19:21.493Z,8.30
2022-12-04T08:21:49.570Z,10.10
2022-12-04T08:24:17.162Z,13.80
2022-12-04T08:26:44.553Z,14.65
2022-12-04T08:29:12.963Z,11.57
2022-12-04T08:31:40.884Z,9.20
2022-12-04T08:34:08.777Z,8.40
2022-12-04T08:36:36.305Z,7.63
2022-12-04T08:39:04.403Z,6.25
2022-12-04T08:41:33.155Z,6.85
2022-12-04T08:44:01.213Z,10.20
2022-12-04T08:46:29.707Z,7.13
2022-12-04T08:48:58.110Z,4.65
2022-12-04T08:51:31.084Z,3.60
2022-12-04T08:54:01.439Z,3.63
2022-12-04T08:56:30.388Z,3.60
2022-12-04T08:58:59.782Z,8.68
2022-12-04T09:01:29.358Z,4.07
2022-12-04T09:03:58.289Z,3.50
2022-12-04T09:06:26.077Z,4.45
2022-12-04T09:08:58.049Z,3.58
2022-12-04T09:11:28.505Z,4.10
2022-12-04T09:13:57.412Z,3.28
2022-12-04T09:16:30.437Z,7.88
2022-12-04T09:18:58.588Z,4.55
2022-12-04T09:21:27.326Z,4.72
2022-12-04T09:23:56.048Z,2.10
2022-12-04T09:26:26.370Z,9.18
2022-12-04T09:31:23.441Z,9.13
2022-12-04T09:33:51.560Z,2.45
2022-12-04T09:36:19.392Z,8.15
2022-12-04T09:38:50.017Z,5.20
2022-12-04T09:41:36.809Z,29.58
2022-12-04T09:44:09.576Z,5.63
2022-12-04T09:47:01.507Z,7.35
2022-12-04T09:50:01.281Z,23.83
2022-12-04T09:53:09.410Z,5.55
2022-12-04T09:55:54.978Z,4.28
2022-12-04T09:58:29.340Z,5.32
2022-12-04T10:00:59.405Z,5.00
2022-12-04T10:03:30.734Z,9.45
2022-12-04T10:06:19.461Z,15.90
2022-12-04T10:09:11.677Z,16.67
2022-12-04T10:11:48.878Z,10.73
2022-12-04T10:14:34.885Z,12.55
2022-12-04T10:17:20.799Z,41.10
2022-12-04T10:19:51.044Z,17.50
2022-12-04T10:22:21.397Z,51.55
2022-12-04T10:24:53.595Z,74.18
2022-12-04T10:27:27.228Z,25.80
2022-12-04T10:30:17.210Z,20.92
2022-12-04T10:32:46.470Z,12.80
2022-12-04T10:35:20.825Z,5.85
2022-12-04T10:37:55.384Z,4.75
2022-12-04T10:40:28.958Z,4.78
2022-12-04T10:43:11.743Z,3.72
2022-12-04T10:45:42.580Z,3.88
2022-12-04T10:48:22.187Z,4.32
2022-12-04T10:50:50.115Z,4.35
2022-12-04T10:53:21.259Z,3.90
2022-12-04T10:55:48.819Z,13.50
2022-12-04T10:58:17.996Z,6.55
2022-12-04T11:01:01.121Z,6.57
2022-12-04T11:03:29.827Z,5.57
2022-12-04T11:06:06.410Z,4.95
2022-12-04T11:08:41.770Z,4.30
2022-12-04T11:11:13.482Z,3.92
2022-12-04T11:13:41.886Z,5.07
2022-12-04T11:16:38.895Z,4.35
2022-12-04T11:19:24.514Z,3.80
2022-12-04T11:21:54.862Z,3.72
2022-12-04T11:24:28.641Z,10.98
2022-12-04T11:26:58.444Z,7.55
2022-12-04T11:29:46.480Z,3.63
2022-12-04T11:32:28.342Z,8.98
2022-12-04T11:35:18.555Z,7.60
2022-12-04T11:38:18.964Z,4.28
2022-12-04T11:40:52.478Z,17.83
2022-12-04T11:43:21.084Z,18.27
2022-12-04T11:45:59.865Z,8.73
2022-12-04T11:48:32.232Z,4.30
2022-12-04T11:51:21.864Z,4.47
2022-12-04T11:54:19.721Z,3.22
2022-12-04T11:57:09.496Z,11.27
2022-12-04T11:59:55.836Z,12.25
2022-12-04T12:02:41.666Z,38.05
2022-12-04T12:05:30.436Z,14.35
2022-12-04T12:08:18.272Z,7.35
2022-12-04T12:11:10.741Z,6.13
2022-12-04T12:14:00.985Z,5.18
2022-12-04T12:16:29.932Z,4.57
2022-12-04T12:19:10.217Z,9.68
2022-12-04T12:21:55.065Z,5.00
2022-12-04T12:24:29.669Z,4.20
2022-12-04T12:27:16.173Z,5.18
2022-12-04T12:29:49.109Z,9.40
2022-12-04T12:32:23.124Z,5.72
2022-12-04T12:34:52.255Z,4.10
2022-12-04T12:37:32.085Z,4.20
2022-12-04T12:40:12.501Z,7.53
2022-12-04T12:45:37.081Z,4.60
2022-12-04T12:48:23.208Z,4.15
2022-12-04T12:51:28.379Z,3.35
2022-12-04T12:53:56.556Z,2.92
2022-12-04T12:56:32.387Z,3.83
2022-12-04T12:59:04.362Z,4.80
2022-12-04T13:01:44.000Z,6.25
2022-12-04T13:04:43.719Z,4.47
2022-12-04T13:07:42.185Z,3.60
2022-12-04T13:10:24.977Z,3.67
2022-12-04T13:13:06.916Z,3.53
2022-12-04T13:16:02.424Z,6.00
2022-12-04T13:18:35.818Z,10.80
2022-12-04T13:21:08.750Z,5.25
2022-12-04T13:24:18.829Z,3.78
2022-12-04T13:26:53.206Z,3.80
2022-12-04T13:29:32.723Z,4.15
2022-12-04T13:32:33.326Z,4.28
2022-12-04T13:37:51.840Z,3.90
2022-12-04T13:40:31.616Z,4.07
2022-12-04T13:43:29.004Z,3.60
2022-12-04T13:46:01.268Z,3.20
2022-12-04T13:48:31.596Z,3.20
2022-12-04T13:51:08.669Z,3.95
2022-12-04T13:53:40.478Z,3.40
2022-12-04T13:56:24.401Z,3.90
2022-12-04T13:59:02.548Z,3.75
2022-12-04T14:01:45.205Z,3.75
2022-12-04T14:04:43.943Z,4.47
2022-12-04T14:07:37.472Z,4.78
2022-12-04T14:10:08.720Z,5.35
2022-12-04T14:12:40.620Z,4.53
2022-12-04T14:15:34.107Z,4.85
2022-12-04T14:18:05.149Z,4.68
2022-12-04T14:20:34.196Z,5.07
2022-12-04T14:23:38.215Z,5.10
2022-12-04T14:26:18.800Z,6.20
2022-12-04T14:31:16.145Z,6.15
2022-12-04T14:34:16.906Z,8.70
2022-12-04T14:39:19.825Z,12.48
2022-12-04T14:41:47.201Z,8.10
2022-12-04T14:44:45.417Z,5.82
2022-12-04T14:47:21.705Z,6.25
2022-12-04T14:50:10.493Z,8.55
2022-12-04T14:53:05.032Z,7.30
2022-12-04T14:56:13.572Z,7.38
2022-12-04T14:58:42.560Z,11.18
2022-12-04T15:01:29.623Z,23.50
2022-12-04T15:04:04.225Z,16.10
2022-12-04T15:06:34.208Z,6.75
2022-12-04T15:09:22.925Z,5.53
2022-12-04T15:12:15.555Z,5.05
2022-12-04T15:14:50.432Z,4.30
2022-12-04T15:17:19.031Z,3.45
2022-12-04T15:19:47.058Z,4.05
2022-12-04T15:22:30.375Z,3.50
2022-12-04T15:24:58.475Z,3.53
2022-12-04T15:27:32.389Z,4.65
2022-12-04T15:30:02.880Z,6.00
2022-12-04T15:32:32.876Z,7.93
2022-12-04T15:35:09.142Z,4.73
2022-12-04T15:37:37.882Z,6.47
2022-12-04T15:40:12.061Z,9.38
2022-12-04T15:42:39.374Z,4.50
2022-12-04T15:45:09.703Z,6.18
2022-12-04T15:47:59.042Z,4.13
2022-12-04T15:50:28.739Z,4.35
2022-12-04T15:53:01.655Z,4.50
2022-12-04T15:55:36.931Z,7.13
2022-12-04T15:58:09.353Z,45.60
2022-12-04T16:00:43.776Z,26.92
2022-12-04T16:03:42.032Z,7.15
2022-12-04T16:06:18.262Z,33.47
2022-12-04T16:08:53.644Z,32.42
2022-12-04T16:11:21.633Z,10.85
2022-12-04T16:14:03.652Z,7.70
2022-12-04T16:16:32.330Z,16.85
2022-12-04T16:19:02.262Z,11.95
2022-12-04T16:21:34.459Z,12.95
2022-12-04T16:24:06.235Z,13.27
2022-12-04T16:26:34.363Z,13.00
2022-12-04T16:29:01.961Z,18.88
2022-12-04T16:31:29.390Z,15.68
2022-12-04T16:33:56.946Z,20.40
2022-12-04T16:36:24.613Z,15.90
2022-12-04T16:38:52.118Z,12.98
2022-12-04T16:41:21.515Z,12.13
2022-12-04T16:43:59.328Z,13.50
2022-12-04T16:46:29.158Z,12.43
2022-12-04T16:48:56.950Z,10.63
2022-12-04T16:51:28.555Z,8.95
2022-12-04T16:53:56.066Z,10.95
2022-12-04T16:56:24.178Z,10.90
2022-12-04T16:58:51.593Z,12.05
2022-12-04T17:01:21.741Z,11.75
2022-12-04T17:03:50.351Z,15.75
2022-12-04T17:06:19.009Z,12.20
2022-12-04T17:08:47.352Z,12.90
2022-12-04T17:11:19.912Z,12.88
2022-12-04T17:13:47.247Z,12.15
2022-12-04T17:16:19.630Z,11.82
2022-12-04T17:18:47.739Z,9.15
2022-12-04T17:21:15.380Z,10.13
2022-12-04T17:23:43.218Z,9.27
2022-12-04T17:26:14.703Z,7.93
2022-12-04T17:28:42.864Z,7.70
2022-12-04T17:31:18.244Z,14.05
2022-12-04T17:33:46.307Z,15.07
2022-12-04T17:36:16.945Z,15.93
2022-12-04T17:41:14.307Z,11.68
2022-12-04T17:43:43.608Z,10.57
2022-12-04T17:46:23.886Z,11.35
2022-12-04T17:48:51.277Z,10.98
2022-12-04T17:51:21.042Z,18.15
2022-12-04T17:53:49.079Z,10.80
2022-12-04T17:56:19.608Z,7.65
2022-12-04T17:58:47.980Z,5.22
2022-12-04T18:01:20.901Z,6.45
2022-12-04T18:03:52.839Z,6.70
2022-12-04T18:06:30.761Z,12.05
2022-12-04T18:08:58.537Z,11.88
2022-12-04T18:11:28.357Z,13.02
2022-12-04T18:14:05.947Z,12.13
2022-12-04T18:16:51.417Z,12.18
2022-12-04T18:19:22.552Z,11.13
2022-12-04T18:21:51.317Z,9.00
2022-12-04T18:24:19.080Z,9.23
2022-12-04T18:26:50.989Z,9.75
2022-12-04T18:29:32.636Z,10.25
2022-12-04T18:32:05.529Z,10.98
2022-12-04T18:34:34.303Z,10.40
2022-12-04T18:37:03.526Z,7.43
2022-12-04T18:39:31.156Z,9.68
2022-12-04T18:41:59.841Z,9.32
2022-12-04T18:44:27.478Z,12.45
2022-12-04T18:46:56.948Z,10.75
2022-12-04T18:49:24.597Z,9.55
2022-12-04T18:51:54.150Z,7.63
2022-12-04T18:54:25.292Z,8.48
2022-12-04T18:56:53.058Z,9.55
2022-12-04T18:59:27.228Z,10.73
2022-12-04T19:01:56.086Z,10.38
2022-12-04T19:04:26.266Z,10.73
2022-12-04T19:06:56.526Z,11.38
2022-12-04T19:09:54.298Z,10.90
2022-12-04T19:12:15.281Z,19.45
2022-12-04T19:14:42.750Z,29.40
2022-12-04T19:17:10.498Z,21.25
2022-12-04T19:19:39.007Z,9.57
2022-12-04T19:22:06.368Z,9.75
2022-12-04T19:24:34.622Z,8.77
2022-12-04T19:27:10.492Z,9.48
2022-12-04T19:29:43.236Z,20.75
2022-12-04T19:32:12.139Z,15.60
2022-12-04T19:34:40.121Z,19.48
2022-12-04T19:37:08.023Z,21.67
2022-12-04T19:39:35.465Z,24.50
2022-12-04T19:42:03.547Z,23.13
2022-12-04T19:47:19.282Z,12.57
2022-12-04T19:49:46.774Z,9.70
2022-12-04T19:52:17.160Z,9.82
2022-12-04T19:54:46.001Z,10.75
2022-12-04T19:57:15.783Z,12.05
2022-12-04T19:59:46.320Z,12.07
2022-12-04T20:02:14.735Z,8.95
2022-12-04T20:04:43.519Z,9.82
2022-12-04T20:07:10.911Z,9.88
2022-12-04T20:09:39.138Z,10.73
2022-12-04T20:12:06.725Z,10.35
2022-12-04T20:14:34.559Z,9.02
2022-12-04T20:17:04.031Z,11.40
2022-12-04T20:19:32.475Z,12.27
2022-12-04T20:22:01.023Z,12.68
2022-12-04T20:24:28.477Z,11.07
2022-12-04T20:26:56.217Z,10.15
2022-12-04T20:29:52.366Z,11.52
2022-12-04T20:32:22.187Z,11.48
2022-12-04T20:34:49.938Z,13.32
2022-12-04T20:37:17.333Z,15.70
2022-12-04T20:39:44.685Z,17.70
2022-12-04T20:42:11.981Z,17.17
2022-12-04T20:44:39.406Z,14.00
2022-12-04T20:47:07.567Z,14.15
2022-12-04T20:49:34.986Z,15.35
2022-12-04T20:52:04.245Z,12.23
2022-12-04T20:54:36.567Z,12.27
2022-12-04T20:57:06.984Z,11.43
2022-12-04T20:59:34.712Z,12.95
2022-12-04T21:02:02.588Z,11.00
2022-12-04T21:04:30.993Z,13.57
2022-12-04T21:06:58.961Z,13.85
2022-12-04T21:09:26.838Z,12.65
2022-12-04T21:11:55.554Z,8.73
2022-12-04T21:14:54.440Z,4.35
2022-12-04T21:17:24.602Z,4.88
2022-12-04T21:19:51.994Z,5.40
2022-12-04T21:22:20.072Z,5.68
2022-12-04T21:24:47.657Z,6.80
2022-12-04T21:27:20.656Z,9.23
2022-12-04T21:29:49.537Z,9.27
2022-12-04T21:32:18.631Z,6.60
2022-12-04T21:34:47.047Z,6.10
2022-12-04T21:37:14.555Z,5.35
2022-12-04T21:39:43.326Z,4.93
2022-12-04T21:42:29.445Z,6.93
2022-12-04T21:45:07.862Z,7.68
2022-12-04T21:47:36.241Z,10.25
2022-12-04T21:50:05.913Z,10.55
2022-12-04T21:52:33.829Z,7.00
2022-12-04T21:55:02.720Z,6.75
2022-12-04T21:57:30.039Z,6.60
2022-12-04T21:59:58.989Z,5.93
2022-12-04T22:02:26.579Z,5.15
2022-12-04T22:04:54.746Z,7.47
2022-12-04T22:07:22.187Z,8.35
2022-12-04T22:09:50.298Z,8.73
2022-12-04T22:12:48.081Z,8.02
2022-12-04T22:15:06.826Z,6.40
2022-12-04T22:17:34.611Z,6.10
2022-12-04T22:20:03.136Z,6.93
2022-12-04T22:22:30.611Z,5.75
2022-12-04T22:25:01.432Z,7.22
2022-12-04T22:27:29.976Z,8.80
2022-12-04T22:29:59.107Z,8.25
2022-12-04T22:32:26.387Z,6.78
2022-12-04T22:34:53.705Z,6.70
2022-12-04T22:37:20.960Z,6.28
2022-12-04T22:39:48.395Z,6.90
2022-12-04T22:42:16.217Z,7.25
2022-12-04T22:44:43.518Z,6.78
2022-12-04T22:47:11.391Z,6.97
2022-12-04T22:49:38.768Z,7.53
2022-12-04T22:52:06.051Z,7.00
2022-12-04T22:54:33.936Z,6.40
2022-12-04T22:57:01.779Z,7.97
2022-12-04T22:59:29.344Z,8.07
2022-12-04T23:01:57.558Z,9.48
2022-12-04T23:04:24.914Z,9.13
2022-12-04T23:06:52.360Z,10.45
2022-12-04T23:09:20.306Z,10.98
2022-12-04T23:11:52.275Z,10.20
2022-12-04T23:14:20.434Z,10.23
2022-12-04T23:16:48.366Z,8.80
2022-12-04T23:19:19.673Z,8.18
2022-12-04T23:21:54.971Z,7.90
2022-12-04T23:24:25.205Z,6.38
2022-12-04T23:26:53.427Z,10.60
2022-12-04T23:29:51.303Z,7.90
2022-12-04T23:32:07.960Z,5.55
2022-12-04T23:34:35.991Z,8.65
2022-12-04T23:37:03.312Z,10.82
2022-12-04T23:39:32.773Z,8.50
2022-12-04T23:42:01.457Z,24.83
2022-12-04T23:44:28.854Z,31.65
2022-12-04T23:46:56.115Z,27.20
2022-12-04T23:49:23.586Z,13.93
2022-12-04T23:51:50.939Z,6.90
2022-12-04T23:54:18.875Z,5.70
2022-12-04T23:56:46.234Z,4.65
2022-12-04T23:59:14.211Z,5.32
